createdAt,value
2018-02-06T00:00:52.382Z,81.09
2018-02-06T00:01:56.599Z,81.19
2018-02-06T00:03:00.897Z,82.13
2018-02-06T00:04:05.994Z,81.36
2018-02-06T00:05:10.492Z,81.37
2018-02-06T00:06:14.730Z,81.50
2018-02-06T00:07:18.965Z,81.71
2018-02-06T00:08:23.198Z,81.92
2018-02-06T00:09:27.444Z,82.15
2018-02-06T00:10:31.612Z,82.21
2018-02-06T00:11:36.832Z,82.77
2018-02-06T00:12:41.222Z,82.38
2018-02-06T00:13:45.414Z,82.27
2018-02-06T00:14:49.631Z,82.28
2018-02-06T00:15:54.294Z,82.59
2018-02-06T00:16:58.988Z,82.34
2018-02-06T00:18:03.991Z,82.22
2018-02-06T00:19:08.154Z,81.78
2018-02-06T00:20:12.374Z,81.78
2018-02-06T00:21:16.630Z,81.58
2018-02-06T00:22:21.067Z,82.06
2018-02-06T00:23:25.306Z,81.68
2018-02-06T00:24:29.482Z,81.37
2018-02-06T00:25:34.280Z,81.60
2018-02-06T00:26:39.412Z,81.44
2018-02-06T00:27:43.739Z,81.21
2018-02-06T00:28:48.024Z,80.23
2018-02-06T00:29:52.596Z,80.95
2018-02-06T00:30:57.492Z,80.93
2018-02-06T00:32:01.770Z,81.42
2018-02-06T00:33:06.488Z,81.83
2018-02-06T00:34:10.779Z,81.96
2018-02-06T00:35:15.029Z,81.58
2018-02-06T00:36:19.482Z,81.79
2018-02-06T00:37:23.650Z,82.20
2018-02-06T00:38:27.893Z,81.79
2018-02-06T00:39:32.248Z,82.27
2018-02-06T00:40:36.398Z,82.14
2018-02-06T00:41:40.614Z,82.37
2018-02-06T00:42:45.068Z,82.05
2018-02-06T00:43:49.230Z,80.99
2018-02-06T00:44:53.487Z,80.65
2018-02-06T00:45:57.884Z,81.09
2018-02-06T00:47:02.079Z,81.57
2018-02-06T00:48:06.290Z,82.21
2018-02-06T00:49:10.786Z,81.41
2018-02-06T00:50:15.069Z,81.42
2018-02-06T00:51:19.276Z,81.67
2018-02-06T00:52:23.438Z,81.87
2018-02-06T00:53:27.674Z,82.21
2018-02-06T00:54:31.839Z,82.10
2018-02-06T00:55:36.102Z,81.52
2018-02-06T00:56:41.166Z,81.51
2018-02-06T00:57:45.302Z,81.31
2018-02-06T00:58:49.539Z,81.54
2018-02-06T00:59:53.704Z,81.31
2018-02-06T01:00:58.569Z,81.30
2018-02-06T01:02:03.011Z,82.00
2018-02-06T01:03:07.247Z,81.57
2018-02-06T01:04:11.466Z,81.18
2018-02-06T01:05:15.683Z,81.06
2018-02-06T01:06:19.933Z,80.07
2018-02-06T01:07:24.954Z,80.04
2018-02-06T01:08:29.134Z,80.08
2018-02-06T01:09:33.711Z,79.80
2018-02-06T01:10:38.501Z,79.66
2018-02-06T01:11:42.768Z,79.71
2018-02-06T01:12:47.306Z,80.29
2018-02-06T01:13:52.184Z,80.23
2018-02-06T01:14:56.622Z,79.97
2018-02-06T01:16:00.925Z,80.03
2018-02-06T01:17:05.266Z,79.75
2018-02-06T01:18:11.049Z,79.59
2018-02-06T01:19:15.224Z,79.60
2018-02-06T01:20:19.756Z,79.25
2018-02-06T01:21:23.942Z,79.29
2018-02-06T01:22:28.542Z,79.41
2018-02-06T01:23:32.741Z,79.54
2018-02-06T01:24:37.606Z,79.82
2018-02-06T01:25:41.757Z,79.95
2018-02-06T01:26:46.211Z,79.56
2018-02-06T01:27:50.590Z,79.68
2018-02-06T01:28:54.738Z,79.26
2018-02-06T01:29:58.967Z,79.20
2018-02-06T01:31:03.985Z,79.22
2018-02-06T01:32:08.192Z,79.24
2018-02-06T01:33:12.772Z,78.99
2018-02-06T01:34:16.999Z,79.37
2018-02-06T01:35:21.190Z,79.42
2018-02-06T01:36:25.477Z,79.70
2018-02-06T01:37:29.662Z,79.30
2018-02-06T01:38:33.953Z,79.40
2018-02-06T01:39:38.899Z,79.29
2018-02-06T01:40:43.066Z,79.20
2018-02-06T01:41:47.366Z,78.88
2018-02-06T01:42:51.498Z,79.03
2018-02-06T01:43:55.710Z,79.02
2018-02-06T01:44:59.915Z,78.90
2018-02-06T01:46:04.769Z,79.19
2018-02-06T01:47:09.698Z,79.06
2018-02-06T01:48:13.809Z,78.95
2018-02-06T01:49:18.034Z,78.66
2018-02-06T01:50:22.176Z,78.76
2018-02-06T01:51:26.395Z,79.22
2018-02-06T01:52:30.933Z,78.73
2018-02-06T01:53:35.177Z,78.75
2018-02-06T01:54:39.324Z,78.89
2018-02-06T01:55:44.583Z,78.46
2018-02-06T01:56:49.359Z,78.57
2018-02-06T01:57:54.263Z,78.63
2018-02-06T01:58:58.721Z,78.48
2018-02-06T02:00:05.306Z,78.23
2018-02-06T02:01:10.299Z,77.79
2018-02-06T02:02:14.535Z,77.92
2018-02-06T02:03:19.118Z,77.90
2018-02-06T02:04:23.573Z,77.74
2018-02-06T02:05:28.701Z,77.92
2018-02-06T02:06:44.441Z,78.08
2018-02-06T02:09:05.963Z,78.31
2018-02-06T02:10:11.518Z,77.98
2018-02-06T02:11:16.009Z,77.97
2018-02-06T02:12:20.304Z,77.90
2018-02-06T02:13:24.462Z,77.97
2018-02-06T02:14:29.076Z,78.00
2018-02-06T02:15:33.678Z,77.95
2018-02-06T02:16:38.121Z,77.74
2018-02-06T02:17:44.130Z,77.75
2018-02-06T02:18:49.122Z,77.90
2018-02-06T02:19:53.506Z,78.05
2018-02-06T02:20:58.102Z,78.03
2018-02-06T02:22:02.385Z,77.98
2018-02-06T02:23:06.933Z,78.48
2018-02-06T02:24:12.029Z,78.76
2018-02-06T02:25:16.249Z,78.06
2018-02-06T02:26:20.542Z,78.10
2018-02-06T02:27:24.665Z,78.43
2018-02-06T02:28:28.880Z,78.58
2018-02-06T02:29:32.993Z,78.30
2018-02-06T02:30:37.767Z,78.45
2018-02-06T02:31:42.087Z,78.36
2018-02-06T02:32:47.092Z,78.46
2018-02-06T02:33:51.266Z,78.06
2018-02-06T02:34:55.503Z,78.00
2018-02-06T02:35:59.614Z,78.02
2018-02-06T02:37:03.928Z,77.79
2018-02-06T02:38:08.057Z,77.85
2018-02-06T02:39:12.716Z,77.89
2018-02-06T02:40:17.455Z,78.02
2018-02-06T02:41:21.646Z,78.15
2018-02-06T04:39:14.726Z,78.07
2018-02-06T04:40:19.853Z,77.99
2018-02-06T04:41:24.868Z,78.39
2018-02-06T04:42:29.553Z,77.95
2018-02-06T04:43:33.835Z,78.07
2018-02-06T04:44:37.990Z,78.12
2018-02-06T04:45:43.010Z,77.93
2018-02-06T04:46:47.250Z,78.20
2018-02-06T04:47:51.374Z,77.99
2018-02-06T04:48:55.866Z,77.81
2018-02-06T04:50:01.379Z,78.31
2018-02-06T04:51:05.494Z,78.19
2018-02-06T04:52:10.261Z,78.20
2018-02-06T04:53:14.442Z,78.51
2018-02-06T04:54:18.631Z,78.45
2018-02-06T04:55:23.875Z,78.57
2018-02-06T04:56:28.073Z,78.46
2018-02-06T04:57:32.676Z,78.35
2018-02-06T04:58:37.118Z,78.22
2018-02-06T04:59:41.297Z,78.49
2018-02-06T05:00:45.827Z,79.02
2018-02-06T05:01:50.013Z,79.23
2018-02-06T05:02:54.297Z,78.47
2018-02-06T05:03:59.085Z,78.15
2018-02-06T05:05:03.650Z,78.36
2018-02-06T05:06:07.900Z,78.50
2018-02-06T05:07:12.109Z,78.67
2018-02-06T05:08:16.288Z,78.98
2018-02-06T05:09:20.441Z,78.73
2018-02-06T05:10:25.409Z,78.97
2018-02-06T05:11:29.533Z,78.78
2018-02-06T05:12:33.770Z,78.80
2018-02-06T05:13:38.043Z,78.82
2018-02-06T05:14:42.164Z,78.90
2018-02-06T05:15:46.753Z,79.27
2018-02-06T05:16:51.207Z,79.29
2018-02-06T05:17:55.602Z,80.45
2018-02-06T05:18:59.744Z,80.36
2018-02-06T05:20:04.031Z,80.05
2018-02-06T05:21:08.191Z,79.62
2018-02-06T05:22:12.383Z,79.71
2018-02-06T05:23:16.669Z,80.13
2018-02-06T05:24:20.950Z,81.23
2018-02-06T05:25:25.753Z,81.94
2018-02-06T05:26:30.502Z,81.77
2018-02-06T05:27:34.657Z,82.46
2018-02-06T05:28:39.182Z,82.67
2018-02-06T05:29:43.423Z,82.15
2018-02-06T05:30:47.688Z,81.36
2018-02-06T05:31:51.900Z,81.44
2018-02-06T05:32:56.087Z,82.33
2018-02-06T05:34:00.896Z,82.75
2018-02-06T05:35:05.407Z,82.10
2018-02-06T05:36:09.550Z,80.98
2018-02-06T05:37:13.737Z,81.05
2018-02-06T05:38:17.909Z,81.67
2018-02-06T05:39:22.193Z,81.71
2018-02-06T05:40:26.702Z,81.63
2018-02-06T05:41:30.881Z,82.23
2018-02-06T05:42:35.897Z,81.36
2018-02-06T05:43:40.041Z,81.20
2018-02-06T05:44:44.249Z,81.13
2018-02-06T05:45:48.950Z,81.58
2018-02-06T05:46:53.240Z,82.34
2018-02-06T05:47:57.358Z,81.75
2018-02-06T05:49:01.655Z,81.02
2018-02-06T05:50:06.754Z,81.62
2018-02-06T05:51:10.967Z,81.60
2018-02-06T05:52:15.477Z,81.07
2018-02-06T05:53:19.706Z,81.61
2018-02-06T05:54:23.904Z,81.44
2018-02-06T05:55:28.178Z,81.40
2018-02-06T05:56:32.342Z,81.37
2018-02-06T05:57:36.741Z,81.31
2018-02-06T05:58:41.002Z,81.48
2018-02-06T05:59:45.201Z,81.27
2018-02-06T06:00:49.635Z,81.27
2018-02-06T06:01:53.890Z,81.44
2018-02-06T06:02:58.045Z,82.14
2018-02-06T06:04:02.327Z,82.45
2018-02-06T06:05:06.862Z,81.65
2018-02-06T06:06:11.106Z,81.83
2018-02-06T06:07:15.851Z,81.60
2018-02-06T06:08:19.987Z,81.62
2018-02-06T06:09:24.184Z,81.78
2018-02-06T06:10:28.358Z,81.81
2018-02-06T06:11:32.602Z,82.19
2018-02-06T06:12:36.787Z,82.39
2018-02-06T06:13:41.003Z,82.68
2018-02-06T06:14:46.059Z,82.88
2018-02-06T06:15:50.627Z,82.92
2018-02-06T06:16:55.175Z,82.99
2018-02-06T06:17:59.372Z,83.68
2018-02-06T06:19:03.663Z,83.13
2018-02-06T06:20:07.838Z,82.94
2018-02-06T06:21:12.776Z,83.03
2018-02-06T06:22:16.973Z,82.94
2018-02-06T06:23:21.291Z,83.09
2018-02-06T06:24:25.439Z,83.08
2018-02-06T06:25:29.718Z,82.95
2018-02-06T06:26:33.935Z,82.85
2018-02-06T06:28:53.727Z,83.08
2018-02-06T06:29:57.854Z,83.09
2018-02-06T06:31:02.219Z,83.14
2018-02-06T06:32:07.384Z,83.46
2018-02-06T06:33:11.913Z,83.35
2018-02-06T06:34:16.230Z,83.53
2018-02-06T06:35:20.378Z,83.55
2018-02-06T06:36:24.580Z,83.68
2018-02-06T06:37:28.774Z,83.55
2018-02-06T06:38:32.996Z,83.49
2018-02-06T06:39:37.615Z,83.56
2018-02-06T06:40:42.957Z,83.63
2018-02-06T06:41:47.175Z,83.61
2018-02-06T06:42:51.366Z,83.53
2018-02-06T06:43:55.574Z,83.76
2018-02-06T06:44:59.783Z,83.68
2018-02-06T06:46:06.278Z,83.78
2018-02-06T06:47:10.466Z,83.34
2018-02-06T06:48:15.266Z,82.79
2018-02-06T06:49:19.420Z,82.42
2018-02-06T06:50:23.642Z,82.51
2018-02-06T06:51:27.858Z,82.59
2018-02-06T06:52:32.150Z,82.73
2018-02-06T06:53:36.374Z,82.79
2018-02-06T06:54:41.638Z,82.70
2018-02-06T06:55:45.891Z,83.16
2018-02-06T06:56:50.059Z,82.87
2018-02-06T06:57:54.289Z,83.68
2018-02-06T06:58:58.827Z,83.53
2018-02-06T07:00:04.794Z,83.69
2018-02-06T07:01:09.145Z,83.88
2018-02-06T07:02:13.965Z,84.16
2018-02-06T07:03:18.518Z,84.47
2018-02-06T07:04:22.914Z,83.91
2018-02-06T07:05:27.686Z,83.92
2018-02-06T07:06:31.847Z,84.00
2018-02-06T07:07:36.098Z,84.08
2018-02-06T07:08:40.833Z,84.01
2018-02-06T07:09:46.044Z,83.90
2018-02-06T07:10:50.227Z,83.98
2018-02-06T07:11:54.681Z,84.11
2018-02-06T07:12:58.894Z,84.40
2018-02-06T07:14:03.225Z,84.97
2018-02-06T07:15:07.720Z,85.10
2018-02-06T07:16:12.895Z,84.95
2018-02-06T07:17:17.050Z,84.84
2018-02-06T07:18:21.231Z,85.07
2018-02-06T07:19:25.426Z,84.99
2018-02-06T07:20:29.741Z,85.02
2018-02-06T07:21:33.930Z,85.15
2018-02-06T07:22:38.083Z,85.12
2018-02-06T07:23:42.322Z,85.12
2018-02-06T07:24:46.570Z,85.53
2018-02-06T07:25:51.449Z,84.56
2018-02-06T07:26:55.665Z,84.52
2018-02-06T07:27:59.851Z,84.61
2018-02-06T07:29:04.038Z,84.42
2018-02-06T07:30:08.344Z,84.52
2018-02-06T07:31:12.982Z,84.27
2018-02-06T07:32:17.166Z,84.25
2018-02-06T07:33:21.307Z,84.10
2018-02-06T07:34:25.821Z,84.16
2018-02-06T07:35:29.984Z,83.69
2018-02-06T07:36:34.289Z,83.82
2018-02-06T07:37:38.574Z,83.55
2018-02-06T07:38:43.392Z,83.26
2018-02-06T07:39:47.607Z,82.72
2018-02-06T07:40:51.870Z,82.79
2018-02-06T07:41:56.094Z,82.82
2018-02-06T07:43:00.251Z,82.48
2018-02-06T07:44:04.474Z,81.30
2018-02-06T07:45:09.869Z,80.33
2018-02-06T07:46:14.517Z,80.30
2018-02-06T07:47:18.788Z,79.97
2018-02-06T07:48:23.079Z,80.08
2018-02-06T07:49:27.304Z,78.37
2018-02-06T07:50:31.531Z,78.37
2018-02-06T07:51:35.810Z,78.60
2018-02-06T07:52:40.175Z,78.08
2018-02-06T07:53:44.382Z,78.94
2018-02-06T07:54:49.462Z,79.91
2018-02-06T07:55:53.810Z,80.92
2018-02-06T07:56:57.953Z,78.00
2018-02-06T07:58:02.474Z,78.50
2018-02-06T07:59:06.634Z,80.63
2018-02-06T08:00:10.804Z,79.19
2018-02-06T08:01:15.100Z,80.29
2018-02-06T08:02:20.044Z,79.79
2018-02-06T08:03:24.245Z,79.46
2018-02-06T08:04:28.705Z,79.09
2018-02-06T08:05:32.906Z,78.96
2018-02-06T08:06:37.246Z,78.59
2018-02-06T08:07:41.465Z,78.52
2018-02-06T08:08:45.751Z,77.27
2018-02-06T08:09:49.889Z,74.57
2018-02-06T08:10:54.415Z,74.44
2018-02-06T08:11:58.711Z,74.47
2018-02-06T08:13:02.927Z,75.52
2018-02-06T08:14:07.210Z,75.08
2018-02-06T08:15:13.069Z,77.86
2018-02-06T08:16:17.268Z,77.76
2018-02-06T08:17:21.549Z,76.85
2018-02-06T08:18:25.706Z,75.30
2018-02-06T08:19:29.836Z,74.19
2018-02-06T08:20:33.997Z,75.64
2018-02-06T08:21:38.309Z,74.75
2018-02-06T08:22:42.559Z,72.17
2018-02-06T08:23:47.689Z,71.01
2018-02-06T08:24:51.910Z,74.78
2018-02-06T08:25:56.711Z,71.29
2018-02-06T08:27:01.012Z,70.63
2018-02-06T08:28:05.168Z,69.15
2018-02-06T08:29:09.310Z,69.44
2018-02-06T08:30:17.006Z,68.24
2018-02-06T08:31:21.490Z,69.48
2018-02-06T08:32:25.743Z,68.69
2018-02-06T08:33:30.011Z,68.44
2018-02-06T08:34:34.354Z,70.89
2018-02-06T08:35:38.564Z,70.15
2018-02-06T08:36:42.884Z,69.79
2018-02-06T08:37:47.104Z,67.48
2018-02-06T08:38:51.255Z,65.51
2018-02-06T08:39:55.455Z,64.27
2018-02-06T08:40:59.811Z,65.82
2018-02-06T08:42:03.978Z,63.16
2018-02-06T08:43:08.393Z,64.90
2018-02-06T08:44:12.646Z,65.33
2018-02-06T08:45:17.611Z,63.61
2018-02-06T08:46:21.889Z,62.09
2018-02-06T08:47:26.119Z,61.91
2018-02-06T08:48:30.276Z,60.98
2018-02-06T08:49:34.586Z,64.21
2018-02-06T08:50:38.802Z,64.43
2018-02-06T08:51:43.426Z,65.47
2018-02-06T08:52:47.596Z,67.19
2018-02-06T08:53:51.817Z,66.33
2018-02-06T08:54:56.258Z,63.04
2018-02-06T08:56:00.528Z,65.62
2018-02-06T08:57:04.862Z,65.55
2018-02-06T08:58:09.344Z,65.65
2018-02-06T08:59:13.662Z,62.75
2018-02-06T09:00:18.414Z,62.85
2018-02-06T09:01:22.635Z,63.28
2018-02-06T09:02:26.928Z,63.39
2018-02-06T09:03:31.170Z,62.63
2018-02-06T09:04:35.383Z,62.01
2018-02-06T09:05:39.778Z,62.79
2018-02-06T09:06:43.896Z,62.30
2018-02-06T09:07:48.202Z,62.24
2018-02-06T09:08:52.405Z,60.06
2018-02-06T09:09:56.741Z,60.38
2018-02-06T09:11:01.599Z,60.71
2018-02-06T09:12:05.779Z,60.77
2018-02-06T09:13:10.186Z,59.00
2018-02-06T09:14:14.392Z,58.77
2018-02-06T09:15:18.871Z,59.35
2018-02-06T09:16:23.046Z,60.42
2018-02-06T09:17:27.249Z,61.35
2018-02-06T09:18:31.562Z,62.02
2018-02-06T09:19:35.811Z,62.72
2018-02-06T09:20:40.054Z,61.04
2018-02-06T09:21:44.318Z,61.13
2018-02-06T09:22:48.711Z,61.44
2018-02-06T09:23:53.098Z,62.07
2018-02-06T09:24:57.286Z,61.75
2018-02-06T09:26:02.440Z,61.56
2018-02-06T09:27:06.610Z,61.58
2018-02-06T09:28:11.190Z,63.08
2018-02-06T09:29:15.525Z,62.88
2018-02-06T09:30:19.976Z,63.54
2018-02-06T09:31:24.150Z,62.46
2018-02-06T09:32:28.370Z,62.46
2018-02-06T09:33:32.558Z,62.36
2018-02-06T09:34:37.308Z,62.55
2018-02-06T09:35:41.548Z,62.44
2018-02-06T09:36:45.990Z,62.07
2018-02-06T09:37:50.171Z,62.11
2018-02-06T09:38:54.450Z,61.55
2018-02-06T09:39:59.414Z,61.50
2018-02-06T09:41:03.582Z,61.56
2018-02-06T09:42:07.753Z,60.33
2018-02-06T09:43:11.875Z,60.35
2018-02-06T09:44:16.841Z,59.31
2018-02-06T09:45:21.477Z,59.80
2018-02-06T09:46:26.006Z,59.97
2018-02-06T09:47:30.161Z,58.91
2018-02-06T09:48:34.388Z,57.05
2018-02-06T09:49:38.630Z,58.26
2018-02-06T09:50:43.792Z,57.67
2018-02-06T09:51:47.971Z,58.82
2018-02-06T09:52:52.211Z,58.37
2018-02-06T09:53:56.373Z,58.15
2018-02-06T09:55:00.809Z,57.96
2018-02-06T09:56:05.063Z,56.78
2018-02-06T09:57:09.595Z,56.67
2018-02-06T09:58:13.740Z,55.35
2018-02-06T09:59:17.979Z,56.32
2018-02-06T10:00:23.263Z,55.95
2018-02-06T10:01:27.513Z,53.81
2018-02-06T10:02:31.773Z,54.08
2018-02-06T10:03:36.355Z,54.94
2018-02-06T10:04:40.572Z,52.31
2018-02-06T10:05:44.834Z,53.01
2018-02-06T10:06:49.021Z,52.99
2018-02-06T10:07:53.300Z,53.30
2018-02-06T10:08:57.478Z,51.67
2018-02-06T10:10:01.861Z,51.95
2018-02-06T10:11:06.039Z,52.56
2018-02-06T10:12:10.320Z,52.65
2018-02-06T10:13:14.534Z,50.93
2018-02-06T10:14:18.682Z,48.89
2018-02-06T10:15:24.438Z,49.27
2018-02-06T10:16:28.944Z,50.86
2018-02-06T10:17:33.252Z,49.14
2018-02-06T10:18:37.639Z,48.58
2018-02-06T10:19:41.807Z,50.60
2018-02-06T10:20:46.193Z,52.45
2018-02-06T10:21:50.533Z,52.77
2018-02-06T10:22:54.794Z,53.04
2018-02-06T10:23:59.030Z,54.76
2018-02-06T10:25:03.371Z,53.77
2018-02-06T10:26:07.681Z,53.00
2018-02-06T10:27:12.188Z,51.68
2018-02-06T10:28:16.366Z,52.52
2018-02-06T10:29:20.684Z,48.71
2018-02-06T10:30:25.407Z,50.30
2018-02-06T10:31:29.633Z,53.20
2018-02-06T10:32:33.874Z,51.97
2018-02-06T10:33:38.079Z,51.06
2018-02-06T10:34:42.252Z,51.16
2018-02-06T10:35:46.552Z,47.75
2018-02-06T10:36:50.885Z,48.37
2018-02-06T10:37:55.174Z,45.42
2018-02-06T10:38:59.447Z,43.44
2018-02-06T10:40:03.988Z,44.09
2018-02-06T10:41:08.387Z,44.65
2018-02-06T10:42:12.709Z,45.99
2018-02-06T10:43:17.061Z,48.23
2018-02-06T10:44:21.698Z,45.78
2018-02-06T10:45:26.736Z,43.86
2018-02-06T10:46:31.088Z,44.14
2018-02-06T10:47:35.263Z,44.88
2018-02-06T10:48:39.536Z,43.16
2018-02-06T10:49:43.800Z,42.97
2018-02-06T10:50:48.023Z,44.00
2018-02-06T10:51:52.223Z,43.40
2018-02-06T10:52:56.399Z,43.70
2018-02-06T10:54:00.716Z,44.83
2018-02-06T10:55:05.053Z,45.11
2018-02-06T10:56:09.274Z,46.94
2018-02-06T10:57:13.764Z,48.33
2018-02-06T10:58:18.684Z,48.80
2018-02-06T10:59:22.922Z,48.11
2018-02-06T11:00:28.132Z,49.18
2018-02-06T11:01:32.349Z,49.55
2018-02-06T11:02:36.821Z,48.51
2018-02-06T11:03:41.035Z,49.30
2018-02-06T11:04:45.361Z,48.17
2018-02-06T11:05:49.677Z,48.36
2018-02-06T11:06:53.908Z,47.37
2018-02-06T11:07:58.201Z,48.12
2018-02-06T11:09:02.520Z,49.79
2018-02-06T11:10:06.733Z,49.52
2018-02-06T11:11:10.898Z,49.58
2018-02-06T11:12:15.113Z,47.25
2018-02-06T11:13:19.361Z,47.28
2018-02-06T11:14:23.958Z,46.60
2018-02-06T11:15:28.368Z,46.58
2018-02-06T11:16:33.526Z,47.09
2018-02-06T11:17:37.823Z,48.57
2018-02-06T11:18:42.099Z,46.28
2018-02-06T11:19:46.342Z,46.55
2018-02-06T11:20:50.975Z,46.20
2018-02-06T11:21:55.247Z,46.46
2018-02-06T11:22:59.458Z,46.27
2018-02-06T11:24:03.744Z,47.15
2018-02-06T11:25:08.001Z,46.52
2018-02-06T11:26:12.390Z,47.20
2018-02-06T11:27:16.684Z,45.95
2018-02-06T11:28:20.886Z,46.55
2018-02-06T11:29:25.141Z,43.84
2018-02-06T11:30:30.485Z,43.36
2018-02-06T11:31:35.329Z,43.44
2018-02-06T11:32:39.844Z,43.89
2018-02-06T11:33:44.022Z,42.83
2018-02-06T11:34:48.245Z,43.51
2018-02-06T11:35:52.530Z,43.95
2018-02-06T11:36:56.801Z,41.87
2018-02-06T11:38:01.176Z,43.03
2018-02-06T11:39:05.764Z,42.02
2018-02-06T11:40:10.768Z,43.18
2018-02-06T11:41:14.999Z,45.10
2018-02-06T11:42:19.319Z,43.49
2018-02-06T11:43:23.625Z,43.03
2018-02-06T11:44:27.882Z,42.89
2018-02-06T11:45:34.081Z,42.30
2018-02-06T11:46:38.288Z,42.49
2018-02-06T11:47:42.468Z,42.65
2018-02-06T11:48:46.730Z,44.40
2018-02-06T11:49:50.912Z,44.89
2018-02-06T11:50:55.156Z,44.67
2018-02-06T11:51:59.421Z,44.60
2018-02-06T11:53:03.732Z,44.00
2018-02-06T11:54:08.869Z,42.99
2018-02-06T11:55:14.153Z,41.62
2018-02-06T11:56:18.747Z,42.20
2018-02-06T11:57:22.956Z,43.25
2018-02-06T11:58:27.226Z,41.93
2018-02-06T11:59:31.477Z,43.14
2018-02-06T12:00:35.945Z,41.76
2018-02-06T12:01:40.139Z,41.69
2018-02-06T12:02:45.316Z,43.11
2018-02-06T12:03:49.604Z,42.26
2018-02-06T12:04:53.840Z,43.22
2018-02-06T12:05:58.160Z,42.36
2018-02-06T12:07:02.492Z,43.31
2018-02-06T12:08:07.006Z,44.55
2018-02-06T12:09:12.721Z,44.40
2018-02-06T12:10:16.885Z,43.65
2018-02-06T12:11:22.272Z,42.52
2018-02-06T12:12:26.670Z,42.55
2018-02-06T12:13:30.836Z,43.71
2018-02-06T12:14:35.020Z,43.63
2018-02-06T12:15:39.271Z,43.33
2018-02-06T12:16:43.540Z,42.02
2018-02-06T12:17:47.833Z,43.71
2018-02-06T12:18:52.093Z,42.97
2018-02-06T12:19:56.342Z,44.15
2018-02-06T12:21:00.686Z,44.08
2018-02-06T12:22:05.188Z,44.34
2018-02-06T12:23:09.429Z,42.18
2018-02-06T12:24:13.612Z,41.76
2018-02-06T12:25:17.940Z,40.19
2018-02-06T12:26:22.125Z,39.79
2018-02-06T12:27:26.647Z,38.16
2018-02-06T12:28:31.005Z,37.39
2018-02-06T12:29:35.266Z,37.28
2018-02-06T12:30:39.728Z,40.26
2018-02-06T12:31:43.971Z,38.42
2018-02-06T12:32:48.192Z,38.80
2018-02-06T12:33:52.778Z,37.15
2018-02-06T12:34:57.042Z,37.64
2018-02-06T12:36:01.410Z,32.57
2018-02-06T12:37:05.654Z,37.13
2018-02-06T12:38:10.786Z,32.46
2018-02-06T12:39:15.000Z,35.57
2018-02-06T12:40:19.585Z,35.30
2018-02-06T12:41:23.884Z,34.33
2018-02-06T12:42:28.124Z,36.15
2018-02-06T12:43:32.492Z,34.80
2018-02-06T12:44:36.691Z,34.13
2018-02-06T12:45:41.772Z,35.41
2018-02-06T12:46:46.045Z,35.62
2018-02-06T12:47:50.289Z,36.12
2018-02-06T12:48:54.525Z,34.16
2018-02-06T12:49:58.703Z,35.39
2018-02-06T12:51:02.943Z,36.21
2018-02-06T12:52:07.305Z,37.69
2018-02-06T12:53:11.496Z,36.25
2018-02-06T12:54:16.547Z,40.02
2018-02-06T12:55:20.743Z,37.61
2018-02-06T12:56:25.039Z,34.82
2018-02-06T12:57:29.299Z,36.99
2018-02-06T12:58:33.956Z,32.91
2018-02-06T12:59:38.156Z,33.86
2018-02-06T13:00:42.779Z,36.43
2018-02-06T13:01:47.058Z,35.89
2018-02-06T13:02:51.438Z,35.86
2018-02-06T13:03:55.649Z,35.41
2018-02-06T13:04:59.971Z,35.36
2018-02-06T13:06:04.365Z,34.75
2018-02-06T13:07:08.645Z,35.67
2018-02-06T13:08:13.880Z,34.56
2018-02-06T13:09:18.517Z,34.67
2018-02-06T13:10:23.170Z,34.94
2018-02-06T13:11:27.926Z,33.73
2018-02-06T13:12:32.156Z,35.67
2018-02-06T13:13:36.537Z,34.35
2018-02-06T13:14:41.335Z,40.60
2018-02-06T13:15:47.262Z,39.92
2018-02-06T13:16:51.689Z,39.05
2018-02-06T13:17:55.989Z,43.07
2018-02-06T13:19:01.105Z,37.49
2018-02-06T13:20:05.650Z,35.36
2018-02-06T13:21:10.794Z,34.92
2018-02-06T13:22:16.000Z,35.95
2018-02-06T13:23:20.364Z,34.70
2018-02-06T13:24:24.663Z,34.22
2018-02-06T13:25:29.019Z,30.95
2018-02-06T13:26:33.317Z,33.08
2018-02-06T13:27:37.915Z,34.02
2018-02-06T13:28:43.587Z,34.47
2018-02-06T13:29:47.914Z,34.03
2018-02-06T13:30:52.166Z,34.40
2018-02-06T13:31:56.444Z,36.28
2018-02-06T13:33:00.796Z,36.73
2018-02-06T13:34:05.386Z,35.62
2018-02-06T13:35:10.232Z,32.83
2018-02-06T13:36:15.160Z,33.15
2018-02-06T13:37:19.421Z,34.22
2018-02-06T13:38:23.653Z,35.09
2018-02-06T13:39:27.961Z,33.88
2018-02-06T13:40:32.260Z,33.22
2018-02-06T13:41:37.444Z,31.89
2018-02-06T13:42:41.756Z,32.17
2018-02-06T13:43:46.276Z,31.89
2018-02-06T13:44:50.729Z,31.70
2018-02-06T13:45:55.841Z,32.84
2018-02-06T13:47:00.221Z,32.02
2018-02-06T13:48:04.660Z,32.24
2018-02-06T13:49:09.109Z,32.46
2018-02-06T13:50:14.320Z,31.88
2018-02-06T13:51:18.625Z,30.90
2018-02-06T13:52:22.929Z,36.86
2018-02-06T13:53:27.419Z,32.37
2018-02-06T13:54:31.653Z,32.31
2018-02-06T13:55:35.887Z,32.20
2018-02-06T13:56:40.254Z,32.29
2018-02-06T13:57:46.036Z,33.40
2018-02-06T13:58:50.354Z,33.32
2018-02-06T13:59:54.772Z,33.34
2018-02-06T14:00:59.200Z,30.54
2018-02-06T14:02:03.563Z,31.74
2018-02-06T14:03:07.781Z,32.23
2018-02-06T14:04:13.036Z,32.69
2018-02-06T14:05:17.317Z,31.23
2018-02-06T14:06:21.654Z,31.59
2018-02-06T14:07:25.858Z,33.64
2018-02-06T14:08:30.359Z,32.27
2018-02-06T14:09:35.054Z,30.78
2018-02-06T14:10:39.280Z,31.88
2018-02-06T14:11:44.468Z,31.21
2018-02-06T14:12:48.701Z,31.59
2018-02-06T14:13:53.093Z,34.06
2018-02-06T14:14:58.070Z,34.19
2018-02-06T14:16:03.192Z,34.84
2018-02-06T14:17:07.685Z,39.54
2018-02-06T14:18:13.307Z,32.20
2018-02-06T14:19:17.566Z,33.34
2018-02-06T14:20:21.911Z,33.66
2018-02-06T14:21:26.172Z,32.09
2018-02-06T14:22:30.754Z,33.10
2018-02-06T14:23:35.102Z,32.47
2018-02-06T14:24:39.419Z,32.94
2018-02-06T14:25:43.626Z,31.59
2018-02-06T14:26:47.905Z,32.00
2018-02-06T14:27:52.118Z,32.33
2018-02-06T14:28:56.490Z,33.79
2018-02-06T14:30:00.847Z,33.15
2018-02-06T14:31:05.244Z,31.79
2018-02-06T14:32:09.447Z,32.87
2018-02-06T14:33:14.592Z,33.88
2018-02-06T14:34:18.923Z,33.97
2018-02-06T14:35:24.849Z,33.85
2018-02-06T14:36:30.417Z,34.95
2018-02-06T14:37:35.659Z,34.18
2018-02-06T14:38:40.933Z,34.52
2018-02-06T14:39:47.303Z,32.85
2018-02-06T14:40:52.804Z,33.02
2018-02-06T14:41:58.087Z,34.28
2018-02-06T14:43:03.191Z,32.43
2018-02-06T14:44:08.359Z,34.16
2018-02-06T14:45:16.892Z,33.10
2018-02-06T14:46:21.570Z,34.55
2018-02-06T14:47:26.295Z,37.16
2018-02-06T14:48:30.761Z,36.12
2018-02-06T14:49:35.317Z,37.63
2018-02-06T14:50:39.685Z,34.80
2018-02-06T14:51:43.998Z,37.36
2018-02-06T14:52:48.192Z,36.60
2018-02-06T14:53:52.486Z,35.71
2018-02-06T14:54:56.906Z,37.58
2018-02-06T14:56:01.222Z,36.45
2018-02-06T14:57:05.550Z,38.92
2018-02-06T14:58:10.133Z,37.50
2018-02-06T14:59:14.624Z,39.83
2018-02-06T15:00:19.201Z,40.74
2018-02-06T15:01:23.845Z,39.28
2018-02-06T15:02:28.038Z,39.27
2018-02-06T15:03:32.291Z,37.75
2018-02-06T15:04:36.706Z,37.72
2018-02-06T15:05:41.535Z,35.99
2018-02-06T15:06:46.501Z,37.78
2018-02-06T15:07:50.878Z,38.75
2018-02-06T15:08:55.510Z,40.86
2018-02-06T15:10:00.275Z,41.86
2018-02-06T15:11:04.676Z,41.25
2018-02-06T15:12:08.890Z,42.94
2018-02-06T15:13:13.327Z,44.16
2018-02-06T15:14:17.656Z,45.24
2018-02-06T15:15:22.428Z,45.09
2018-02-06T15:16:26.691Z,44.78
2018-02-06T15:17:31.035Z,44.44
2018-02-06T15:18:35.376Z,44.55
2018-02-06T15:19:39.704Z,45.58
2018-02-06T15:20:44.359Z,46.28
2018-02-06T15:21:49.541Z,49.06
2018-02-06T15:22:53.926Z,50.49
2018-02-06T15:23:58.727Z,48.53
2018-02-06T15:25:03.989Z,49.95
2018-02-06T15:26:08.243Z,49.16
2018-02-06T15:27:12.781Z,53.01
2018-02-06T15:28:17.138Z,50.69
2018-02-06T15:29:21.392Z,51.81
2018-02-06T15:30:26.863Z,50.05
2018-02-06T15:31:32.792Z,51.11
2018-02-06T15:32:37.102Z,51.93
2018-02-06T15:33:41.388Z,50.58
2018-02-06T15:34:45.645Z,50.40
2018-02-06T15:35:49.990Z,51.27
2018-02-06T15:36:54.280Z,52.27
2018-02-06T15:37:58.572Z,52.11
2018-02-06T15:39:03.660Z,51.75
2018-02-06T15:40:08.171Z,50.88
2018-02-06T15:41:12.541Z,51.04
2018-02-06T15:42:16.867Z,53.01
2018-02-06T15:43:21.112Z,55.26
2018-02-06T15:44:25.369Z,58.28
2018-02-06T15:45:29.950Z,55.97
2018-02-06T15:46:34.299Z,55.47
2018-02-06T15:47:38.706Z,53.23
2018-02-06T15:48:45.671Z,56.82
2018-02-06T15:49:49.931Z,57.12